sensor_id;sensor_type;location;lat;lon;timestamp;P1;durP1;ratioP1;P2;durP2;ratioP2
70122;SDS011;57489;37.404;24.920;2023-12-20T00:03:37;4.47;;;2.17;;
70122;SDS011;57489;37.404;24.920;2023-12-20T00:08:40;5.03;;;2.40;;
70122;SDS011;57489;37.404;24.920;2023-12-20T00:13:43;4.88;;;2.13;;
70122;SDS011;57489;37.404;24.920;2023-12-20T00:18:45;4.23;;;2.20;;
70122;SDS011;57489;37.404;24.920;2023-12-20T00:23:49;4.13;;;2.30;;
70122;SDS011;57489;37.404;24.920;2023-12-20T00:28:51;5.30;;;2.17;;
70122;SDS011;57489;37.404;24.920;2023-12-20T00:33:53;4.70;;;2.13;;
70122;SDS011;57489;37.404;24.920;2023-12-20T00:38:58;5.35;;;2.17;;
70122;SDS011;57489;37.404;24.920;2023-12-20T00:44:02;4.80;;;2.00;;
70122;SDS011;57489;37.404;24.920;2023-12-20T00:49:05;6.07;;;2.00;;
70122;SDS011;57489;37.404;24.920;2023-12-20T00:54:09;5.85;;;2.33;;
70122;SDS011;57489;37.404;24.920;2023-12-20T00:59:11;4.83;;;2.30;;
70122;SDS011;57489;37.404;24.920;2023-12-20T01:04:13;3.97;;;2.10;;
70122;SDS011;57489;37.404;24.920;2023-12-20T01:09:17;3.43;;;2.13;;
70122;SDS011;57489;37.404;24.920;2023-12-20T01:14:19;3.97;;;2.03;;
70122;SDS011;57489;37.404;24.920;2023-12-20T01:19:22;4.00;;;1.83;;
70122;SDS011;57489;37.404;24.920;2023-12-20T01:24:28;5.00;;;2.20;;
70122;SDS011;57489;37.404;24.920;2023-12-20T01:29:30;5.63;;;1.85;;
70122;SDS011;57489;37.404;24.920;2023-12-20T01:34:33;5.50;;;2.63;;
70122;SDS011;57489;37.404;24.920;2023-12-20T01:39:37;4.40;;;1.92;;
70122;SDS011;57489;37.404;24.920;2023-12-20T01:44:40;3.85;;;2.03;;
70122;SDS011;57489;37.404;24.920;2023-12-20T01:49:42;5.50;;;1.97;;
70122;SDS011;57489;37.404;24.920;2023-12-20T01:54:46;4.15;;;2.38;;
70122;SDS011;57489;37.404;24.920;2023-12-20T01:59:49;5.10;;;2.40;;
70122;SDS011;57489;37.404;24.920;2023-12-20T02:04:51;4.03;;;2.03;;
70122;SDS011;57489;37.404;24.920;2023-12-20T02:09:55;4.80;;;2.50;;
70122;SDS011;57489;37.404;24.920;2023-12-20T02:14:57;4.73;;;2.17;;
70122;SDS011;57489;37.404;24.920;2023-12-20T02:20:00;3.90;;;1.65;;
70122;SDS011;57489;37.404;24.920;2023-12-20T02:25:04;4.22;;;2.03;;
70122;SDS011;57489;37.404;24.920;2023-12-20T02:30:07;4.57;;;1.63;;
70122;SDS011;57489;37.404;24.920;2023-12-20T02:35:10;4.85;;;2.10;;
70122;SDS011;57489;37.404;24.920;2023-12-20T02:40:13;3.83;;;2.00;;
70122;SDS011;57489;37.404;24.920;2023-12-20T02:45:16;6.47;;;2.10;;
70122;SDS011;57489;37.404;24.920;2023-12-20T02:50:18;3.97;;;2.30;;
70122;SDS011;57489;37.404;24.920;2023-12-20T02:55:21;5.43;;;2.00;;
70122;SDS011;57489;37.404;24.920;2023-12-20T03:00:24;3.43;;;1.77;;
70122;SDS011;57489;37.404;24.920;2023-12-20T03:05:26;3.50;;;1.90;;
70122;SDS011;57489;37.404;24.920;2023-12-20T03:10:30;3.80;;;2.00;;
70122;SDS011;57489;37.404;24.920;2023-12-20T03:15:32;3.63;;;1.90;;
70122;SDS011;57489;37.404;24.920;2023-12-20T03:20:34;3.92;;;1.60;;
70122;SDS011;57489;37.404;24.920;2023-12-20T03:25:38;4.33;;;1.73;;
70122;SDS011;57489;37.404;24.920;2023-12-20T03:30:40;3.83;;;1.90;;
70122;SDS011;57489;37.404;24.920;2023-12-20T03:35:42;3.72;;;1.70;;
70122;SDS011;57489;37.404;24.920;2023-12-20T03:40:46;3.57;;;1.70;;
70122;SDS011;57489;37.404;24.920;2023-12-20T03:45:48;4.85;;;1.98;;
70122;SDS011;57489;37.404;24.920;2023-12-20T03:50:51;3.90;;;1.83;;
70122;SDS011;57489;37.404;24.920;2023-12-20T03:55:54;3.75;;;2.08;;
70122;SDS011;57489;37.404;24.920;2023-12-20T04:00:56;3.83;;;2.00;;
70122;SDS011;57489;37.404;24.920;2023-12-20T04:05:59;2.53;;;1.47;;
70122;SDS011;57489;37.404;24.920;2023-12-20T04:11:02;3.72;;;1.70;;
70122;SDS011;57489;37.404;24.920;2023-12-20T04:16:05;4.70;;;2.00;;
70122;SDS011;57489;37.404;24.920;2023-12-20T04:21:07;4.67;;;1.97;;
70122;SDS011;57489;37.404;24.920;2023-12-20T04:26:11;3.65;;;2.20;;
70122;SDS011;57489;37.404;24.920;2023-12-20T04:31:13;3.43;;;1.90;;
70122;SDS011;57489;37.404;24.920;2023-12-20T04:36:16;3.97;;;2.10;;
70122;SDS011;57489;37.404;24.920;2023-12-20T04:41:19;3.53;;;1.52;;
70122;SDS011;57489;37.404;24.920;2023-12-20T04:46:22;3.47;;;1.53;;
70122;SDS011;57489;37.404;24.920;2023-12-20T04:51:24;3.88;;;1.60;;
70122;SDS011;57489;37.404;24.920;2023-12-20T04:56:28;5.53;;;1.80;;
70122;SDS011;57489;37.404;24.920;2023-12-20T05:01:30;3.63;;;1.50;;
70122;SDS011;57489;37.404;24.920;2023-12-20T05:06:32;12.15;;;2.22;;
70122;SDS011;57489;37.404;24.920;2023-12-20T05:11:36;4.25;;;1.92;;
70122;SDS011;57489;37.404;24.920;2023-12-20T05:16:38;2.90;;;1.70;;
70122;SDS011;57489;37.404;24.920;2023-12-20T05:21:40;3.88;;;2.20;;
70122;SDS011;57489;37.404;24.920;2023-12-20T05:26:44;4.10;;;2.10;;
70122;SDS011;57489;37.404;24.920;2023-12-20T05:31:46;4.53;;;2.17;;
70122;SDS011;57489;37.404;24.920;2023-12-20T05:36:48;4.45;;;1.90;;
70122;SDS011;57489;37.404;24.920;2023-12-20T05:41:52;6.57;;;2.07;;
70122;SDS011;57489;37.404;24.920;2023-12-20T05:46:54;12.48;;;3.33;;
70122;SDS011;57489;37.404;24.920;2023-12-20T05:51:56;18.23;;;4.25;;
70122;SDS011;57489;37.404;24.920;2023-12-20T05:57:00;13.30;;;3.80;;
70122;SDS011;57489;37.404;24.920;2023-12-20T06:02:03;10.68;;;3.83;;
70122;SDS011;57489;37.404;24.920;2023-12-20T06:07:05;16.57;;;3.20;;
70122;SDS011;57489;37.404;24.920;2023-12-20T06:12:09;14.65;;;2.90;;
70122;SDS011;57489;37.404;24.920;2023-12-20T06:17:11;13.60;;;3.28;;
70122;SDS011;57489;37.404;24.920;2023-12-20T06:22:14;12.10;;;2.80;;
70122;SDS011;57489;37.404;24.920;2023-12-20T06:27:17;9.45;;;2.70;;
70122;SDS011;57489;37.404;24.920;2023-12-20T06:32:20;11.20;;;3.80;;
70122;SDS011;57489;37.404;24.920;2023-12-20T06:37:23;12.97;;;4.13;;
70122;SDS011;57489;37.404;24.920;2023-12-20T06:42:27;11.25;;;3.63;;
70122;SDS011;57489;37.404;24.920;2023-12-20T06:47:29;11.07;;;4.10;;
70122;SDS011;57489;37.404;24.920;2023-12-20T06:52:31;12.15;;;3.17;;
70122;SDS011;57489;37.404;24.920;2023-12-20T06:57:35;22.13;;;4.00;;
70122;SDS011;57489;37.404;24.920;2023-12-20T07:02:37;17.43;;;3.73;;
70122;SDS011;57489;37.404;24.920;2023-12-20T07:07:40;20.45;;;4.10;;
70122;SDS011;57489;37.404;24.920;2023-12-20T07:12:44;16.80;;;4.73;;
70122;SDS011;57489;37.404;24.920;2023-12-20T07:17:46;14.57;;;4.30;;
70122;SDS011;57489;37.404;24.920;2023-12-20T07:22:48;13.77;;;3.72;;
70122;SDS011;57489;37.404;24.920;2023-12-20T07:27:52;17.43;;;4.23;;
70122;SDS011;57489;37.404;24.920;2023-12-20T07:32:54;14.32;;;3.92;;
70122;SDS011;57489;37.404;24.920;2023-12-20T07:37:56;14.85;;;4.30;;
70122;SDS011;57489;37.404;24.920;2023-12-20T07:43:00;10.80;;;3.23;;
70122;SDS011;57489;37.404;24.920;2023-12-20T07:48:03;10.02;;;3.78;;
70122;SDS011;57489;37.404;24.920;2023-12-20T07:53:05;12.75;;;3.30;;
70122;SDS011;57489;37.404;24.920;2023-12-20T07:58:09;11.63;;;3.10;;
70122;SDS011;57489;37.404;24.920;2023-12-20T08:03:11;9.93;;;3.85;;
70122;SDS011;57489;37.404;24.920;2023-12-20T08:08:14;12.40;;;3.67;;
70122;SDS011;57489;37.404;24.920;2023-12-20T08:13:17;9.60;;;3.00;;
70122;SDS011;57489;37.404;24.920;2023-12-20T08:18:20;9.05;;;2.75;;
70122;SDS011;57489;37.404;24.920;2023-12-20T08:23:22;13.80;;;3.23;;
70122;SDS011;57489;37.404;24.920;2023-12-20T08:28:26;10.23;;;3.07;;
70122;SDS011;57489;37.404;24.920;2023-12-20T08:33:28;9.13;;;2.90;;
70122;SDS011;57489;37.404;24.920;2023-12-20T08:38:30;8.30;;;3.00;;
70122;SDS011;57489;37.404;24.920;2023-12-20T08:43:35;11.67;;;3.53;;
70122;SDS011;57489;37.404;24.920;2023-12-20T08:48:40;8.90;;;3.00;;
70122;SDS011;57489;37.404;24.920;2023-12-20T08:53:42;10.67;;;3.00;;
70122;SDS011;57489;37.404;24.920;2023-12-20T08:58:49;12.77;;;3.37;;
70122;SDS011;57489;37.404;24.920;2023-12-20T09:03:51;9.80;;;3.30;;
70122;SDS011;57489;37.404;24.920;2023-12-20T09:08:53;7.35;;;2.60;;
70122;SDS011;57489;37.404;24.920;2023-12-20T09:13:57;8.53;;;2.67;;
70122;SDS011;57489;37.404;24.920;2023-12-20T09:18:59;7.18;;;2.88;;
70122;SDS011;57489;37.404;24.920;2023-12-20T09:24:02;8.48;;;3.08;;
70122;SDS011;57489;37.404;24.920;2023-12-20T09:29:05;10.70;;;3.07;;
70122;SDS011;57489;37.404;24.920;2023-12-20T09:34:09;11.20;;;3.05;;
70122;SDS011;57489;37.404;24.920;2023-12-20T09:39:12;6.85;;;2.78;;
70122;SDS011;57489;37.404;24.920;2023-12-20T09:44:16;7.50;;;2.90;;
70122;SDS011;57489;37.404;24.920;2023-12-20T09:49:19;8.05;;;2.95;;
70122;SDS011;57489;37.404;24.920;2023-12-20T09:54:21;8.43;;;2.87;;
70122;SDS011;57489;37.404;24.920;2023-12-20T09:59:26;6.77;;;2.83;;
70122;SDS011;57489;37.404;24.920;2023-12-20T10:04:28;8.00;;;2.83;;
70122;SDS011;57489;37.404;24.920;2023-12-20T10:09:33;7.03;;;2.67;;
70122;SDS011;57489;37.404;24.920;2023-12-20T10:14:37;7.77;;;2.70;;
70122;SDS011;57489;37.404;24.920;2023-12-20T10:19:40;6.45;;;2.55;;
70122;SDS011;57489;37.404;24.920;2023-12-20T10:24:45;6.25;;;2.53;;
70122;SDS011;57489;37.404;24.920;2023-12-20T10:29:49;6.57;;;2.60;;
70122;SDS011;57489;37.404;24.920;2023-12-20T10:34:51;7.78;;;2.78;;
70122;SDS011;57489;37.404;24.920;2023-12-20T10:39:54;7.10;;;2.47;;
70122;SDS011;57489;37.404;24.920;2023-12-20T10:44:59;7.23;;;2.70;;
70122;SDS011;57489;37.404;24.920;2023-12-20T10:50:02;7.07;;;3.10;;
70122;SDS011;57489;37.404;24.920;2023-12-20T10:55:07;8.67;;;2.63;;
70122;SDS011;57489;37.404;24.920;2023-12-20T11:00:12;6.93;;;2.67;;
70122;SDS011;57489;37.404;24.920;2023-12-20T11:05:21;7.18;;;2.65;;
70122;SDS011;57489;37.404;24.920;2023-12-20T11:10:31;8.53;;;3.07;;
70122;SDS011;57489;37.404;24.920;2023-12-20T11:15:42;6.47;;;2.73;;
70122;SDS011;57489;37.404;24.920;2023-12-20T11:20:44;7.03;;;2.67;;
70122;SDS011;57489;37.404;24.920;2023-12-20T11:25:47;6.63;;;2.90;;
70122;SDS011;57489;37.404;24.920;2023-12-20T11:30:54;6.20;;;2.93;;
70122;SDS011;57489;37.404;24.920;2023-12-20T11:35:57;5.70;;;2.60;;
70122;SDS011;57489;37.404;24.920;2023-12-20T11:41:01;6.33;;;2.93;;
70122;SDS011;57489;37.404;24.920;2023-12-20T11:46:05;7.43;;;3.20;;
70122;SDS011;57489;37.404;24.920;2023-12-20T11:51:09;9.15;;;3.28;;
70122;SDS011;57489;37.404;24.920;2023-12-20T11:56:12;5.15;;;2.35;;
70122;SDS011;57489;37.404;24.920;2023-12-20T12:01:16;7.73;;;3.03;;
70122;SDS011;57489;37.404;24.920;2023-12-20T12:06:18;6.32;;;2.38;;
70122;SDS011;57489;37.404;24.920;2023-12-20T12:11:20;7.85;;;3.30;;
70122;SDS011;57489;37.404;24.920;2023-12-20T12:16:24;10.40;;;2.53;;
70122;SDS011;57489;37.404;24.920;2023-12-20T12:21:27;8.13;;;3.10;;
70122;SDS011;57489;37.404;24.920;2023-12-20T12:26:30;6.40;;;2.50;;
70122;SDS011;57489;37.404;24.920;2023-12-20T12:31:33;5.87;;;2.73;;
70122;SDS011;57489;37.404;24.920;2023-12-20T12:36:36;8.93;;;2.83;;
70122;SDS011;57489;37.404;24.920;2023-12-20T12:41:39;9.70;;;3.23;;
70122;SDS011;57489;37.404;24.920;2023-12-20T12:46:43;7.50;;;2.77;;
70122;SDS011;57489;37.404;24.920;2023-12-20T12:51:46;6.70;;;2.72;;
70122;SDS011;57489;37.404;24.920;2023-12-20T12:56:48;11.30;;;2.93;;
70122;SDS011;57489;37.404;24.920;2023-12-20T13:01:52;5.40;;;2.23;;
70122;SDS011;57489;37.404;24.920;2023-12-20T13:06:54;8.55;;;2.65;;
70122;SDS011;57489;37.404;24.920;2023-12-20T13:11:57;5.70;;;2.80;;
70122;SDS011;57489;37.404;24.920;2023-12-20T13:17:01;5.37;;;2.50;;
70122;SDS011;57489;37.404;24.920;2023-12-20T13:22:04;7.53;;;2.50;;
70122;SDS011;57489;37.404;24.920;2023-12-20T13:27:06;8.30;;;2.23;;
70122;SDS011;57489;37.404;24.920;2023-12-20T13:32:10;5.30;;;2.30;;
70122;SDS011;57489;37.404;24.920;2023-12-20T13:37:12;8.10;;;3.00;;
70122;SDS011;57489;37.404;24.920;2023-12-20T13:42:15;6.13;;;2.60;;
70122;SDS011;57489;37.404;24.920;2023-12-20T13:47:19;6.00;;;2.60;;
70122;SDS011;57489;37.404;24.920;2023-12-20T13:52:21;5.20;;;2.30;;
70122;SDS011;57489;37.404;24.920;2023-12-20T13:57:23;6.20;;;2.30;;
70122;SDS011;57489;37.404;24.920;2023-12-20T14:02:27;5.27;;;2.60;;
70122;SDS011;57489;37.404;24.920;2023-12-20T14:07:29;4.40;;;2.00;;
70122;SDS011;57489;37.404;24.920;2023-12-20T14:12:31;5.18;;;2.15;;
70122;SDS011;57489;37.404;24.920;2023-12-20T14:17:38;4.80;;;1.90;;
70122;SDS011;57489;37.404;24.920;2023-12-20T14:22:40;4.05;;;1.95;;
70122;SDS011;57489;37.404;24.920;2023-12-20T14:27:44;4.83;;;1.83;;
70122;SDS011;57489;37.404;24.920;2023-12-20T14:32:48;5.10;;;1.90;;
70122;SDS011;57489;37.404;24.920;2023-12-20T14:37:51;5.38;;;1.83;;
70122;SDS011;57489;37.404;24.920;2023-12-20T14:42:53;5.22;;;2.35;;
70122;SDS011;57489;37.404;24.920;2023-12-20T14:47:56;5.07;;;2.10;;
70122;SDS011;57489;37.404;24.920;2023-12-20T14:52:59;4.68;;;2.40;;
70122;SDS011;57489;37.404;24.920;2023-12-20T14:58:01;5.73;;;1.90;;
70122;SDS011;57489;37.404;24.920;2023-12-20T15:03:05;7.87;;;2.30;;
70122;SDS011;57489;37.404;24.920;2023-12-20T15:08:07;6.32;;;2.05;;
70122;SDS011;57489;37.404;24.920;2023-12-20T15:13:11;6.50;;;2.10;;
70122;SDS011;57489;37.404;24.920;2023-12-20T15:18:14;6.17;;;1.80;;
70122;SDS011;57489;37.404;24.920;2023-12-20T15:23:17;5.32;;;1.92;;
70122;SDS011;57489;37.404;24.920;2023-12-20T15:28:20;5.33;;;1.80;;
70122;SDS011;57489;37.404;24.920;2023-12-20T15:33:24;3.90;;;1.77;;
70122;SDS011;57489;37.404;24.920;2023-12-20T15:38:26;6.32;;;1.90;;
70122;SDS011;57489;37.404;24.920;2023-12-20T15:43:28;4.70;;;1.87;;
70122;SDS011;57489;37.404;24.920;2023-12-20T15:48:32;5.23;;;1.90;;
70122;SDS011;57489;37.404;24.920;2023-12-20T15:53:35;5.35;;;2.03;;
70122;SDS011;57489;37.404;24.920;2023-12-20T15:58:37;3.50;;;1.77;;
70122;SDS011;57489;37.404;24.920;2023-12-20T16:03:41;6.30;;;2.13;;
70122;SDS011;57489;37.404;24.920;2023-12-20T16:08:44;5.30;;;2.17;;
70122;SDS011;57489;37.404;24.920;2023-12-20T16:13:46;6.80;;;1.77;;
70122;SDS011;57489;37.404;24.920;2023-12-20T16:18:50;7.17;;;1.70;;
70122;SDS011;57489;37.404;24.920;2023-12-20T16:23:53;6.90;;;1.98;;
70122;SDS011;57489;37.404;24.920;2023-12-20T16:28:55;4.93;;;2.27;;
70122;SDS011;57489;37.404;24.920;2023-12-20T16:33:59;5.60;;;2.23;;
70122;SDS011;57489;37.404;24.920;2023-12-20T16:39:01;5.35;;;2.00;;
70122;SDS011;57489;37.404;24.920;2023-12-20T16:44:09;3.57;;;1.97;;
70122;SDS011;57489;37.404;24.920;2023-12-20T16:49:13;4.17;;;1.87;;
70122;SDS011;57489;37.404;24.920;2023-12-20T16:54:16;8.32;;;2.30;;
70122;SDS011;57489;37.404;24.920;2023-12-20T16:59:18;7.17;;;1.90;;
70122;SDS011;57489;37.404;24.920;2023-12-20T17:04:21;4.83;;;2.00;;
70122;SDS011;57489;37.404;24.920;2023-12-20T17:09:24;7.35;;;2.25;;
70122;SDS011;57489;37.404;24.920;2023-12-20T17:14:27;5.77;;;2.37;;
70122;SDS011;57489;37.404;24.920;2023-12-20T17:19:31;5.53;;;2.10;;
70122;SDS011;57489;37.404;24.920;2023-12-20T17:24:33;4.97;;;2.60;;
70122;SDS011;57489;37.404;24.920;2023-12-20T17:29:36;6.50;;;2.17;;
70122;SDS011;57489;37.404;24.920;2023-12-20T17:34:39;4.53;;;2.47;;
70122;SDS011;57489;37.404;24.920;2023-12-20T17:39:42;5.10;;;2.30;;
70122;SDS011;57489;37.404;24.920;2023-12-20T17:44:44;6.10;;;2.37;;
70122;SDS011;57489;37.404;24.920;2023-12-20T17:49:48;6.60;;;2.43;;
70122;SDS011;57489;37.404;24.920;2023-12-20T17:54:50;4.85;;;2.70;;
70122;SDS011;57489;37.404;24.920;2023-12-20T17:59:52;4.97;;;2.00;;
70122;SDS011;57489;37.404;24.920;2023-12-20T18:04:57;7.07;;;2.57;;
70122;SDS011;57489;37.404;24.920;2023-12-20T18:09:59;6.80;;;2.55;;
70122;SDS011;57489;37.404;24.920;2023-12-20T18:15:01;4.50;;;2.33;;
70122;SDS011;57489;37.404;24.920;2023-12-20T18:20:06;4.60;;;1.90;;
70122;SDS011;57489;37.404;24.920;2023-12-20T18:25:09;4.88;;;2.30;;
70122;SDS011;57489;37.404;24.920;2023-12-20T18:30:11;4.07;;;1.80;;
70122;SDS011;57489;37.404;24.920;2023-12-20T18:35:15;4.33;;;1.80;;
70122;SDS011;57489;37.404;24.920;2023-12-20T18:40:17;5.07;;;2.05;;
70122;SDS011;57489;37.404;24.920;2023-12-20T18:45:21;5.17;;;1.77;;
70122;SDS011;57489;37.404;24.920;2023-12-20T18:50:24;3.93;;;1.97;;
70122;SDS011;57489;37.404;24.920;2023-12-20T18:55:27;4.70;;;1.75;;
70122;SDS011;57489;37.404;24.920;2023-12-20T19:00:29;3.67;;;1.70;;
70122;SDS011;57489;37.404;24.920;2023-12-20T19:05:32;3.70;;;1.50;;
70122;SDS011;57489;37.404;24.920;2023-12-20T19:10:35;7.13;;;2.22;;
70122;SDS011;57489;37.404;24.920;2023-12-20T19:15:38;4.87;;;1.93;;
70122;SDS011;57489;37.404;24.920;2023-12-20T19:20:41;7.67;;;2.30;;
70122;SDS011;57489;37.404;24.920;2023-12-20T19:25:43;8.07;;;2.72;;
70122;SDS011;57489;37.404;24.920;2023-12-20T19:30:46;4.23;;;1.87;;
70122;SDS011;57489;37.404;24.920;2023-12-20T19:35:50;6.10;;;1.57;;
70122;SDS011;57489;37.404;24.920;2023-12-20T19:40:52;4.45;;;2.03;;
70122;SDS011;57489;37.404;24.920;2023-12-20T19:45:55;4.83;;;1.67;;
70122;SDS011;57489;37.404;24.920;2023-12-20T19:50:58;6.10;;;2.87;;
70122;SDS011;57489;37.404;24.920;2023-12-20T19:56:01;3.95;;;1.77;;
70122;SDS011;57489;37.404;24.920;2023-12-20T20:01:03;4.63;;;2.03;;
70122;SDS011;57489;37.404;24.920;2023-12-20T20:06:07;3.87;;;1.87;;
70122;SDS011;57489;37.404;24.920;2023-12-20T20:11:11;5.97;;;2.50;;
70122;SDS011;57489;37.404;24.920;2023-12-20T20:16:13;3.53;;;2.20;;
70122;SDS011;57489;37.404;24.920;2023-12-20T20:21:16;6.23;;;1.73;;
70122;SDS011;57489;37.404;24.920;2023-12-20T20:26:19;3.95;;;1.98;;
70122;SDS011;57489;37.404;24.920;2023-12-20T20:31:22;5.07;;;1.60;;
70122;SDS011;57489;37.404;24.920;2023-12-20T20:36:26;4.47;;;2.10;;
70122;SDS011;57489;37.404;24.920;2023-12-20T20:41:28;4.15;;;1.77;;
70122;SDS011;57489;37.404;24.920;2023-12-20T20:46:31;3.38;;;1.63;;
70122;SDS011;57489;37.404;24.920;2023-12-20T20:51:35;4.57;;;2.03;;
70122;SDS011;57489;37.404;24.920;2023-12-20T20:56:37;4.07;;;1.77;;
70122;SDS011;57489;37.404;24.920;2023-12-20T21:01:39;4.13;;;2.03;;
70122;SDS011;57489;37.404;24.920;2023-12-20T21:06:44;3.83;;;1.80;;
70122;SDS011;57489;37.404;24.920;2023-12-20T21:11:47;5.00;;;2.33;;
70122;SDS011;57489;37.404;24.920;2023-12-20T21:16:50;5.10;;;2.00;;
70122;SDS011;57489;37.404;24.920;2023-12-20T21:21:53;6.87;;;1.60;;
70122;SDS011;57489;37.404;24.920;2023-12-20T21:26:56;4.72;;;2.35;;
70122;SDS011;57489;37.404;24.920;2023-12-20T21:31:58;5.60;;;2.47;;
70122;SDS011;57489;37.404;24.920;2023-12-20T21:37:02;3.70;;;1.60;;
70122;SDS011;57489;37.404;24.920;2023-12-20T21:42:06;5.35;;;2.03;;
70122;SDS011;57489;37.404;24.920;2023-12-20T21:47:09;3.93;;;1.70;;
70122;SDS011;57489;37.404;24.920;2023-12-20T21:52:12;5.38;;;1.50;;
70122;SDS011;57489;37.404;24.920;2023-12-20T21:57:16;4.40;;;1.73;;
70122;SDS011;57489;37.404;24.920;2023-12-20T22:02:19;5.43;;;2.03;;
70122;SDS011;57489;37.404;24.920;2023-12-20T22:07:22;3.63;;;1.65;;
70122;SDS011;57489;37.404;24.920;2023-12-20T22:12:25;4.85;;;2.10;;
70122;SDS011;57489;37.404;24.920;2023-12-20T22:17:27;3.87;;;2.03;;
70122;SDS011;57489;37.404;24.920;2023-12-20T22:22:31;3.72;;;2.10;;
70122;SDS011;57489;37.404;24.920;2023-12-20T22:27:33;5.03;;;2.03;;
70122;SDS011;57489;37.404;24.920;2023-12-20T22:32:35;4.20;;;2.23;;
70122;SDS011;57489;37.404;24.920;2023-12-20T22:37:39;6.20;;;2.17;;
70122;SDS011;57489;37.404;24.920;2023-12-20T22:42:44;4.80;;;1.87;;
70122;SDS011;57489;37.404;24.920;2023-12-20T22:47:46;3.80;;;1.80;;
70122;SDS011;57489;37.404;24.920;2023-12-20T22:52:50;4.10;;;2.20;;
70122;SDS011;57489;37.404;24.920;2023-12-20T22:57:52;6.40;;;2.10;;
70122;SDS011;57489;37.404;24.920;2023-12-20T23:02:54;4.37;;;2.27;;
70122;SDS011;57489;37.404;24.920;2023-12-20T23:07:58;5.15;;;2.60;;
70122;SDS011;57489;37.404;24.920;2023-12-20T23:13:01;4.57;;;2.23;;
70122;SDS011;57489;37.404;24.920;2023-12-20T23:18:03;3.87;;;1.73;;
70122;SDS011;57489;37.404;24.920;2023-12-20T23:23:07;3.90;;;1.90;;
70122;SDS011;57489;37.404;24.920;2023-12-20T23:28:09;3.97;;;1.90;;
70122;SDS011;57489;37.404;24.920;2023-12-20T23:33:12;4.10;;;2.03;;
70122;SDS011;57489;37.404;24.920;2023-12-20T23:38:17;4.43;;;2.60;;
70122;SDS011;57489;37.404;24.920;2023-12-20T23:43:19;3.97;;;1.70;;
70122;SDS011;57489;37.404;24.920;2023-12-20T23:48:21;3.33;;;1.67;;
70122;SDS011;57489;37.404;24.920;2023-12-20T23:53:25;4.93;;;1.83;;
70122;SDS011;57489;37.404;24.920;2023-12-20T23:58:28;4.37;;;2.07;;
